createdAt,value
2023-01-04T00:01:24.391Z,7.68
2023-01-04T00:03:52.226Z,7.62
2023-01-04T00:06:20.612Z,6.64
2023-01-04T00:08:48.877Z,5.77
2023-01-04T00:11:19.610Z,5.13
2023-01-04T00:13:49.207Z,4.65
2023-01-04T00:16:22.276Z,4.26
2023-01-04T00:18:51.161Z,3.91
2023-01-04T00:21:27.219Z,3.63
2023-01-04T00:23:58.182Z,4.00
2023-01-04T00:26:30.973Z,5.25
2023-01-04T00:29:02.420Z,5.94
2023-01-04T00:31:30.591Z,6.26
2023-01-04T00:34:00.952Z,6.47
2023-01-04T00:36:29.164Z,6.58
2023-01-04T00:39:10.805Z,6.57
2023-01-04T00:44:29.480Z,6.56
2023-01-04T00:46:58.070Z,6.60
2023-01-04T00:49:26.727Z,6.63
2023-01-04T00:51:54.982Z,6.64
2023-01-04T00:54:22.641Z,6.66
2023-01-04T00:56:50.830Z,6.66
2023-01-04T00:59:20.631Z,6.69
2023-01-04T01:01:49.001Z,6.74
2023-01-04T01:04:19.762Z,6.51
2023-01-04T01:06:48.305Z,5.65
2023-01-04T01:09:16.500Z,4.92
2023-01-04T01:11:44.460Z,4.36
2023-01-04T01:14:17.537Z,3.94
2023-01-04T01:16:55.273Z,3.60
2023-01-04T01:19:24.877Z,3.82
2023-01-04T01:21:52.536Z,5.16
2023-01-04T01:24:20.615Z,5.75
2023-01-04T01:26:48.441Z,5.99
2023-01-04T01:29:16.131Z,6.52
2023-01-04T01:31:44.058Z,6.72
2023-01-04T01:34:12.064Z,7.18
2023-01-04T01:36:39.736Z,6.85
2023-01-04T01:39:07.848Z,5.90
2023-01-04T01:41:36.019Z,5.02
2023-01-04T01:44:12.768Z,4.36
2023-01-04T01:46:45.167Z,3.84
2023-01-04T01:49:33.880Z,3.43
2023-01-04T01:52:05.089Z,3.70
2023-01-04T01:54:37.165Z,4.86
2023-01-04T01:57:07.638Z,5.24
2023-01-04T01:59:38.427Z,5.40
2023-01-04T02:02:06.869Z,5.53
2023-01-04T02:04:37.221Z,5.65
2023-01-04T02:07:05.210Z,5.75
2023-01-04T02:09:33.468Z,5.82
2023-01-04T02:12:01.077Z,5.87
2023-01-04T02:14:29.281Z,5.93
2023-01-04T02:17:13.373Z,5.98
2023-01-04T02:19:43.679Z,6.05
2023-01-04T02:22:11.225Z,6.10
2023-01-04T02:24:53.591Z,6.17
2023-01-04T02:27:41.366Z,6.23
2023-01-04T02:30:38.879Z,6.32
2023-01-04T02:33:25.010Z,6.30
2023-01-04T02:36:17.993Z,6.26
2023-01-04T02:39:08.285Z,6.18
2023-01-04T02:41:48.332Z,6.12
2023-01-04T02:44:40.660Z,6.08
2023-01-04T02:47:43.030Z,6.04
2023-01-04T02:50:31.931Z,6.03
2023-01-04T02:53:13.216Z,5.99
2023-01-04T02:56:07.895Z,5.91
2023-01-04T02:59:03.566Z,5.86
2023-01-04T03:02:02.064Z,5.88
2023-01-04T03:04:52.646Z,5.94
2023-01-04T03:08:15.908Z,6.00
2023-01-04T03:10:59.233Z,6.03
2023-01-04T03:13:45.849Z,5.82
2023-01-04T03:16:20.615Z,4.82
2023-01-04T03:18:52.911Z,4.01
2023-01-04T03:21:25.066Z,3.42
2023-01-04T03:24:16.737Z,2.97
2023-01-04T03:27:07.137Z,3.25
2023-01-04T03:29:58.186Z,4.61
2023-01-04T03:32:51.983Z,5.64
2023-01-04T03:35:28.157Z,6.28
2023-01-04T03:38:34.370Z,6.38
2023-01-04T03:41:26.934Z,6.46
2023-01-04T03:44:41.946Z,6.27
2023-01-04T03:47:37.689Z,4.96
2023-01-04T03:50:21.255Z,4.03
2023-01-04T03:52:51.114Z,3.40
2023-01-04T03:55:19.023Z,2.96
2023-01-04T03:57:47.950Z,3.18
2023-01-04T04:00:18.557Z,4.50
2023-01-04T04:02:48.090Z,5.58
2023-01-04T04:05:36.463Z,6.29
2023-01-04T04:08:23.745Z,6.75
2023-01-04T04:10:51.816Z,7.06
2023-01-04T04:13:19.670Z,6.81
2023-01-04T04:15:47.896Z,5.62
2023-01-04T04:18:15.465Z,4.62
2023-01-04T04:20:43.087Z,3.88
2023-01-04T04:23:10.641Z,3.31
2023-01-04T04:25:38.348Z,3.33
2023-01-04T04:28:06.192Z,4.47
2023-01-04T04:30:33.851Z,5.26
2023-01-04T04:33:01.517Z,5.71
2023-01-04T04:35:29.266Z,6.11
2023-01-04T04:37:56.920Z,6.37
2023-01-04T04:40:43.395Z,6.05
2023-01-04T04:43:11.109Z,4.98
2023-01-04T04:45:38.763Z,4.16
2023-01-04T04:48:06.383Z,3.58
2023-01-04T04:50:33.979Z,3.09
2023-01-04T04:53:01.745Z,2.70
2023-01-04T04:55:29.367Z,2.39
2023-01-04T04:57:56.991Z,2.70
2023-01-04T05:00:24.620Z,3.58
2023-01-04T05:02:52.357Z,4.01
2023-01-04T05:05:20.165Z,4.37
2023-01-04T05:07:47.772Z,4.48
2023-01-04T05:10:15.506Z,4.51
2023-01-04T05:13:01.164Z,4.52
2023-01-04T05:15:36.593Z,4.54
2023-01-04T05:18:05.774Z,4.59
2023-01-04T05:20:34.622Z,4.57
2023-01-04T05:23:02.243Z,4.48
2023-01-04T05:25:29.845Z,4.51
2023-01-04T05:27:57.672Z,4.50
2023-01-04T05:30:44.222Z,4.53
2023-01-04T05:33:11.876Z,4.57
2023-01-04T05:35:39.603Z,4.57
2023-01-04T05:38:07.278Z,4.56
2023-01-04T05:40:34.998Z,4.58
2023-01-04T05:43:02.640Z,4.61
2023-01-04T05:45:30.377Z,4.68
2023-01-04T05:47:58.096Z,4.72
2023-01-04T05:50:26.104Z,4.69
2023-01-04T05:52:53.939Z,4.72
2023-01-04T05:55:21.557Z,4.70
2023-01-04T05:57:50.422Z,4.66
2023-01-04T06:00:18.287Z,4.66
2023-01-04T06:02:45.975Z,4.66
2023-01-04T06:05:14.216Z,4.63
2023-01-04T06:07:41.910Z,4.81
2023-01-04T06:10:11.632Z,4.83
2023-01-04T06:12:39.943Z,4.72
2023-01-04T06:15:09.654Z,4.66
2023-01-04T06:17:39.115Z,4.60
2023-01-04T06:20:09.510Z,4.51
2023-01-04T06:22:38.547Z,4.52
2023-01-04T06:25:06.685Z,4.44
2023-01-04T06:27:34.538Z,4.28
2023-01-04T06:30:02.222Z,4.09
2023-01-04T06:32:30.308Z,3.97
2023-01-04T06:34:58.050Z,3.90
2023-01-04T06:37:25.777Z,3.81
2023-01-04T06:39:53.448Z,3.77
2023-01-04T06:42:39.818Z,3.74
2023-01-04T06:45:07.997Z,3.69
2023-01-04T06:47:35.641Z,3.62
2023-01-04T06:50:04.451Z,3.59
2023-01-04T06:52:32.099Z,3.59
2023-01-04T06:54:59.904Z,3.57
2023-01-04T06:57:27.827Z,3.57
2023-01-04T06:59:55.403Z,3.58
2023-01-04T07:02:23.169Z,3.57
2023-01-04T07:04:51.065Z,3.59
2023-01-04T07:07:20.403Z,3.74
2023-01-04T07:09:48.027Z,3.91
2023-01-04T07:12:15.722Z,4.04
2023-01-04T07:14:43.531Z,4.21
2023-01-04T07:17:11.179Z,4.35
2023-01-04T07:19:38.879Z,4.45
2023-01-04T07:22:06.559Z,4.53
2023-01-04T07:24:34.258Z,4.54
2023-01-04T07:27:02.122Z,4.57
2023-01-04T07:29:29.796Z,4.60
2023-01-04T07:31:57.612Z,4.58
2023-01-04T07:34:25.873Z,4.56
2023-01-04T07:36:53.563Z,4.57
2023-01-04T07:39:22.271Z,4.53
2023-01-04T07:41:50.623Z,4.53
2023-01-04T07:44:19.609Z,4.57
2023-01-04T07:46:47.678Z,4.59
2023-01-04T07:49:18.635Z,4.57
2023-01-04T07:51:48.137Z,4.54
2023-01-04T07:54:17.285Z,4.50
2023-01-04T07:56:46.566Z,4.52
2023-01-04T07:59:15.547Z,4.51
2023-01-04T08:01:43.841Z,4.51
2023-01-04T08:04:13.603Z,4.52
2023-01-04T08:06:43.427Z,4.55
2023-01-04T08:09:11.422Z,4.51
2023-01-04T08:11:39.164Z,4.51
2023-01-04T08:14:06.879Z,4.61
2023-01-04T08:16:37.433Z,4.77
2023-01-04T08:19:06.370Z,5.01
2023-01-04T08:21:36.026Z,5.37
2023-01-04T08:24:04.016Z,5.80
2023-01-04T08:26:32.566Z,6.18
2023-01-04T08:29:00.255Z,6.49
2023-01-04T08:31:30.544Z,6.74
2023-01-04T08:34:01.164Z,7.01
2023-01-04T08:36:31.422Z,7.24
2023-01-04T08:39:02.158Z,7.47
2023-01-04T08:44:24.645Z,7.81
2023-01-04T08:46:53.675Z,7.99
2023-01-04T08:49:22.446Z,8.12
2023-01-04T08:51:50.294Z,8.23
2023-01-04T08:54:18.507Z,8.41
2023-01-04T08:56:46.177Z,8.71
2023-01-04T08:59:14.457Z,9.00
2023-01-04T09:01:42.406Z,9.26
2023-01-04T09:04:10.296Z,9.34
2023-01-04T09:06:38.858Z,9.03
2023-01-04T09:09:06.596Z,8.73
2023-01-04T09:11:35.279Z,8.61
2023-01-04T09:14:08.058Z,8.49
2023-01-04T09:16:39.929Z,8.23
2023-01-04T09:19:08.222Z,8.03
2023-01-04T09:21:35.974Z,7.88
2023-01-04T09:24:04.061Z,7.67
2023-01-04T09:26:31.789Z,7.54
2023-01-04T09:28:59.629Z,7.45
2023-01-04T09:31:28.817Z,7.53
2023-01-04T09:34:15.754Z,8.24
2023-01-04T09:36:45.769Z,8.63
2023-01-04T09:39:21.664Z,8.73
2023-01-04T09:42:04.915Z,8.89
2023-01-04T09:45:21.917Z,9.00
2023-01-04T09:47:44.184Z,8.37
2023-01-04T09:50:30.429Z,7.71
2023-01-04T09:53:02.957Z,7.20
2023-01-04T09:55:45.758Z,6.88
2023-01-04T09:58:31.620Z,6.64
2023-01-04T10:01:04.791Z,6.75
2023-01-04T10:03:35.584Z,7.18
2023-01-04T10:06:03.847Z,7.47
2023-01-04T10:08:31.625Z,7.65
2023-01-04T10:11:28.289Z,7.86
2023-01-04T10:14:02.020Z,8.10
2023-01-04T10:17:20.289Z,8.30
2023-01-04T10:23:05.378Z,8.70
2023-01-04T10:25:50.941Z,8.89
2023-01-04T10:28:24.614Z,9.06
2023-01-04T10:31:40.492Z,9.18
2023-01-04T10:34:30.218Z,9.25
2023-01-04T10:37:03.834Z,9.04
2023-01-04T10:39:36.019Z,8.47
2023-01-04T10:42:15.936Z,7.97
2023-01-04T10:45:08.445Z,7.59
2023-01-04T10:47:46.792Z,7.33
2023-01-04T10:50:25.486Z,7.61
2023-01-04T10:53:16.002Z,7.95
2023-01-04T10:56:26.476Z,8.21
2023-01-04T10:58:47.789Z,8.39
2023-01-04T11:01:30.271Z,8.47
2023-01-04T11:04:22.962Z,8.54
2023-01-04T11:07:02.527Z,8.59
2023-01-04T11:09:39.296Z,8.66
2023-01-04T11:12:12.282Z,8.71
2023-01-04T11:14:39.888Z,8.81
2023-01-04T11:17:10.766Z,8.88
2023-01-04T11:19:39.838Z,8.92
2023-01-04T11:22:14.085Z,8.90
2023-01-04T11:35:07.376Z,7.35
2023-01-04T11:37:40.556Z,7.11
2023-01-04T11:40:12.503Z,6.93
2023-01-04T11:42:40.362Z,7.26
2023-01-04T11:45:27.006Z,7.69
2023-01-04T11:47:56.808Z,7.96
2023-01-04T11:50:41.920Z,8.12
2023-01-04T11:53:27.957Z,8.21
2023-01-04T11:56:22.849Z,8.20
2023-01-04T11:59:08.860Z,8.14
2023-01-04T12:01:42.899Z,8.13
2023-01-04T12:04:16.821Z,8.09
2023-01-04T12:06:55.211Z,8.04
2023-01-04T12:09:22.946Z,8.04
2023-01-04T12:11:56.300Z,8.04
2023-01-04T12:14:33.024Z,8.10
2023-01-04T12:17:14.189Z,8.23
2023-01-04T12:19:44.121Z,8.41
2023-01-04T12:22:29.914Z,8.55
2023-01-04T12:25:02.252Z,8.54
2023-01-04T12:27:29.892Z,8.44
2023-01-04T12:30:02.946Z,8.34
2023-01-04T12:32:30.505Z,8.33
2023-01-04T12:34:58.278Z,8.27
2023-01-04T12:37:45.729Z,8.20
2023-01-04T12:40:44.754Z,8.27
2023-01-04T12:43:15.186Z,8.35
2023-01-04T12:45:48.464Z,8.42
2023-01-04T12:48:46.887Z,8.45
2023-01-04T12:51:33.274Z,8.46
2023-01-04T12:54:05.774Z,8.42
2023-01-04T12:57:09.703Z,8.32
2023-01-04T12:59:55.263Z,8.18
2023-01-04T13:02:30.374Z,8.14
2023-01-04T13:05:53.263Z,8.09
2023-01-04T13:07:59.788Z,7.98
2023-01-04T13:10:33.408Z,7.93
2023-01-04T13:13:25.746Z,7.90
2023-01-04T13:16:11.773Z,7.90
2023-01-04T13:18:56.463Z,8.01
2023-01-04T13:21:39.295Z,8.03
2023-01-04T13:24:22.548Z,7.97
2023-01-04T13:26:54.691Z,7.95
2023-01-04T13:29:26.864Z,7.99
2023-01-04T13:31:56.025Z,8.04
2023-01-04T13:34:27.453Z,8.09
2023-01-04T13:37:19.266Z,8.08
2023-01-04T13:39:50.111Z,8.07
2023-01-04T13:42:17.738Z,8.06
2023-01-04T13:45:19.673Z,8.04
2023-01-04T13:47:51.439Z,8.02
2023-01-04T13:50:26.629Z,8.04
2023-01-04T13:53:06.319Z,8.08
2023-01-04T13:55:38.011Z,8.11
2023-01-04T13:58:16.540Z,8.09
2023-01-04T14:00:59.651Z,8.06
2023-01-04T14:03:42.592Z,8.03
2023-01-04T14:06:10.258Z,8.02
2023-01-04T14:08:56.897Z,8.03
2023-01-04T14:11:47.054Z,8.05
2023-01-04T14:14:53.803Z,8.13
2023-01-04T14:17:24.264Z,8.28
2023-01-04T14:19:59.900Z,8.35
2023-01-04T14:22:39.769Z,8.37
2023-01-04T14:25:38.333Z,8.42
2023-01-04T14:28:28.392Z,8.44
2023-01-04T14:30:59.141Z,8.44
2023-01-04T14:33:36.379Z,8.43
2023-01-04T14:36:10.365Z,8.42
2023-01-04T14:38:47.879Z,8.41
2023-01-04T14:41:22.561Z,8.40
2023-01-04T14:44:12.236Z,8.41
2023-01-04T14:46:41.886Z,8.43
2023-01-04T14:49:09.820Z,8.40
2023-01-04T14:51:48.547Z,8.32
2023-01-04T14:54:24.239Z,8.25
2023-01-04T14:56:54.812Z,8.23
2023-01-04T14:59:26.532Z,8.22
2023-01-04T15:01:56.368Z,8.19
2023-01-04T15:04:24.390Z,8.22
2023-01-04T15:06:58.905Z,8.26
2023-01-04T15:09:28.017Z,8.28
2023-01-04T15:11:55.913Z,8.33
2023-01-04T15:14:24.191Z,8.27
2023-01-04T15:16:51.950Z,8.30
2023-01-04T15:19:19.724Z,8.42
2023-01-04T15:21:47.391Z,8.41
2023-01-04T15:24:15.243Z,8.35
2023-01-04T15:26:43.555Z,8.31
2023-01-04T15:29:11.281Z,8.29
2023-01-04T15:31:41.306Z,8.26
2023-01-04T15:34:09.860Z,8.27
2023-01-04T15:36:40.599Z,8.35
2023-01-04T15:39:14.103Z,8.34
2023-01-04T15:42:01.161Z,8.33
2023-01-04T15:44:28.772Z,8.36
2023-01-04T15:46:59.255Z,8.44
2023-01-04T15:49:30.437Z,8.53
2023-01-04T15:51:58.407Z,8.60
2023-01-04T15:54:27.716Z,8.62
2023-01-04T15:56:55.910Z,8.62
2023-01-04T15:59:23.941Z,8.52
2023-01-04T16:01:51.831Z,8.44
2023-01-04T16:04:19.647Z,8.35
2023-01-04T16:06:47.323Z,8.33
2023-01-04T16:09:15.113Z,8.23
2023-01-04T16:12:02.751Z,8.17
2023-01-04T16:14:30.419Z,8.19
2023-01-04T16:17:00.379Z,8.15
2023-01-04T16:19:28.240Z,8.07
2023-01-04T16:21:56.189Z,8.06
2023-01-04T16:25:00.241Z,8.12
2023-01-04T16:27:11.571Z,8.07
2023-01-04T16:29:39.276Z,8.02
2023-01-04T16:32:07.164Z,8.01
2023-01-04T16:34:36.042Z,8.02
2023-01-04T16:37:03.835Z,8.02
2023-01-04T16:40:05.180Z,8.02
2023-01-04T16:42:19.386Z,8.02
2023-01-04T16:44:47.142Z,8.00
2023-01-04T16:47:14.883Z,7.95
2023-01-04T16:49:42.717Z,7.89
2023-01-04T16:52:12.955Z,7.84
2023-01-04T16:54:40.676Z,7.79
2023-01-04T16:57:08.323Z,7.78
2023-01-04T16:59:36.004Z,7.79
2023-01-04T17:02:03.787Z,7.76
2023-01-04T17:04:31.467Z,7.73
2023-01-04T17:06:59.137Z,7.79
2023-01-04T17:09:27.094Z,7.85
2023-01-04T17:14:45.449Z,7.97
2023-01-04T17:17:13.195Z,7.99
2023-01-04T17:19:40.840Z,7.99
2023-01-04T17:22:08.662Z,8.01
2023-01-04T17:24:36.336Z,8.04
2023-01-04T17:27:03.953Z,8.05
2023-01-04T17:29:31.576Z,8.04
2023-01-04T17:31:59.419Z,8.01
2023-01-04T17:34:27.299Z,8.01
2023-01-04T17:36:55.029Z,8.01
2023-01-04T17:39:22.692Z,8.05
2023-01-04T17:41:50.410Z,8.05
2023-01-04T17:44:18.080Z,8.05
2023-01-04T17:46:45.754Z,8.04
2023-01-04T17:49:32.049Z,8.01
2023-01-04T17:52:00.188Z,7.99
2023-01-04T17:54:27.884Z,7.97
2023-01-04T17:56:55.564Z,7.99
2023-01-04T17:59:23.337Z,7.96
2023-01-04T18:01:51.034Z,7.95
2023-01-04T18:04:18.793Z,8.00
2023-01-04T18:06:46.405Z,8.03
2023-01-04T18:09:18.517Z,8.09
2023-01-04T18:11:51.089Z,8.08
2023-01-04T18:14:19.025Z,8.14
2023-01-04T18:16:56.603Z,8.18
2023-01-04T18:19:27.313Z,8.18
2023-01-04T18:21:55.546Z,8.14
2023-01-04T18:24:39.417Z,8.19
2023-01-04T18:27:26.465Z,8.23
2023-01-04T18:29:56.084Z,8.19
2023-01-04T18:32:25.882Z,8.26
2023-01-04T18:34:53.515Z,8.32
2023-01-04T18:37:21.544Z,8.33
2023-01-04T18:39:49.242Z,8.37
2023-01-04T18:42:17.169Z,8.38
2023-01-04T18:44:49.113Z,8.42
2023-01-04T18:47:20.078Z,8.43
2023-01-04T18:49:49.675Z,8.42
2023-01-04T18:52:18.664Z,8.43
2023-01-04T18:54:47.854Z,8.44
2023-01-04T18:57:15.810Z,8.40
2023-01-04T18:59:43.494Z,8.35
2023-01-04T19:02:19.444Z,8.31
2023-01-04T19:04:47.367Z,8.26
2023-01-04T19:07:15.097Z,8.23
2023-01-04T19:09:43.275Z,8.22
2023-01-04T19:12:11.233Z,8.24
2023-01-04T19:14:39.223Z,8.18
2023-01-04T19:17:08.173Z,8.14
2023-01-04T19:19:36.521Z,8.13
2023-01-04T19:22:04.265Z,8.13
2023-01-04T19:24:31.872Z,8.14
2023-01-04T19:27:03.191Z,8.20
2023-01-04T19:29:32.266Z,8.23
2023-01-04T19:31:59.923Z,8.32
2023-01-04T19:34:28.154Z,8.35
2023-01-04T19:36:55.886Z,8.39
2023-01-04T19:39:23.479Z,8.37
2023-01-04T19:41:51.075Z,8.38
2023-01-04T19:44:18.727Z,8.41
2023-01-04T19:46:46.457Z,8.40
2023-01-04T19:49:15.383Z,8.42
2023-01-04T19:51:45.428Z,8.43
2023-01-04T19:54:14.356Z,8.50
2023-01-04T19:56:42.104Z,8.52
2023-01-04T20:02:12.385Z,8.54
2023-01-04T20:04:40.147Z,8.58
2023-01-04T20:07:07.990Z,8.58
2023-01-04T20:09:35.784Z,8.56
2023-01-04T20:12:03.722Z,8.57
2023-01-04T20:14:31.369Z,8.54
2023-01-04T20:16:59.283Z,8.54
2023-01-04T20:19:27.043Z,8.53
2023-01-04T20:21:54.777Z,8.54
2023-01-04T20:24:22.472Z,8.48
2023-01-04T20:26:50.321Z,8.44
2023-01-04T20:29:18.071Z,8.51
2023-01-04T20:31:46.143Z,8.47
2023-01-04T20:34:14.435Z,8.47
2023-01-04T20:36:42.209Z,8.52
2023-01-04T20:39:10.220Z,8.59
2023-01-04T20:41:58.765Z,8.71
2023-01-04T20:44:26.496Z,8.78
2023-01-04T20:46:54.318Z,8.84
2023-01-04T20:49:21.996Z,8.88
2023-01-04T20:51:50.013Z,8.96
2023-01-04T20:54:17.709Z,9.02
2023-01-04T20:56:45.435Z,9.03
2023-01-04T20:59:14.177Z,9.04
2023-01-04T21:01:42.182Z,9.11
2023-01-04T21:04:10.007Z,9.11
2023-01-04T21:06:37.665Z,9.10
2023-01-04T21:09:05.254Z,9.06
2023-01-04T21:11:32.851Z,9.22
2023-01-04T21:14:01.947Z,9.25
2023-01-04T21:16:30.850Z,9.40
2023-01-04T21:18:59.155Z,9.55
2023-01-04T21:21:26.836Z,9.67
2023-01-04T21:23:57.952Z,9.91
2023-01-04T21:26:25.942Z,9.81
2023-01-04T21:28:53.694Z,9.77
2023-01-04T21:31:24.140Z,9.85
2023-01-04T21:33:53.783Z,9.94
2023-01-04T21:36:24.373Z,10.05
2023-01-04T21:38:53.873Z,10.16
2023-01-04T21:41:25.588Z,10.22
2023-01-04T21:43:56.255Z,10.26
2023-01-04T21:46:25.528Z,10.25
2023-01-04T21:48:55.608Z,10.23
2023-01-04T21:51:23.683Z,10.11
2023-01-04T21:53:51.327Z,9.98
2023-01-04T21:56:21.916Z,9.94
2023-01-04T21:58:50.006Z,9.86
2023-01-04T22:01:26.327Z,9.87
2023-01-04T22:03:57.002Z,9.86
2023-01-04T22:06:25.750Z,9.82
2023-01-04T22:08:53.612Z,9.80
2023-01-04T22:11:21.391Z,9.56
2023-01-04T22:13:50.598Z,9.46
2023-01-04T22:16:18.604Z,9.42
2023-01-04T22:18:52.694Z,9.82
2023-01-04T22:21:24.956Z,10.22
2023-01-04T22:23:54.181Z,10.01
2023-01-04T22:26:21.863Z,9.95
2023-01-04T22:28:49.540Z,10.20
2023-01-04T22:31:17.203Z,9.96
2023-01-04T22:33:45.028Z,9.52
2023-01-04T22:36:22.352Z,9.24
2023-01-04T22:38:53.399Z,8.98
2023-01-04T22:41:23.537Z,8.82
2023-01-04T22:43:59.350Z,8.98
2023-01-04T22:46:28.432Z,8.99
2023-01-04T22:48:56.903Z,9.02
2023-01-04T22:51:27.512Z,9.03
2023-01-04T22:53:57.277Z,9.02
2023-01-04T22:56:25.598Z,8.99
2023-01-04T22:58:55.760Z,8.94
2023-01-04T23:01:26.487Z,8.80
2023-01-04T23:03:55.387Z,8.63
2023-01-04T23:06:24.171Z,8.53
2023-01-04T23:09:04.421Z,8.43
2023-01-04T23:11:33.601Z,8.36
2023-01-04T23:14:03.480Z,8.50
2023-01-04T23:16:33.082Z,9.15
2023-01-04T23:19:02.474Z,9.37
2023-01-04T23:21:31.204Z,9.45
2023-01-04T23:24:00.174Z,9.44
2023-01-04T23:26:29.640Z,9.37
2023-01-04T23:28:57.670Z,9.32
2023-01-04T23:31:29.111Z,9.20
2023-01-04T23:33:59.058Z,9.58
2023-01-04T23:36:36.164Z,10.53
2023-01-04T23:39:06.832Z,10.87
2023-01-04T23:41:47.189Z,10.73
2023-01-04T23:46:54.709Z,10.25
2023-01-04T23:49:23.712Z,9.86
2023-01-04T23:51:52.105Z,9.53
2023-01-04T23:54:20.512Z,9.33
2023-01-04T23:56:48.376Z,9.17
2023-01-04T23:59:16.444Z,9.00
